sensor_id;sensor_type;location;lat;lon;timestamp;temperature;humidity
19152;DHT22;9708;53.114;9.388;2023-05-07T00:00:34;9.80;99.90
19152;DHT22;9708;53.114;9.388;2023-05-07T00:03:00;9.90;99.90
19152;DHT22;9708;53.114;9.388;2023-05-07T00:05:29;9.80;99.90
19152;DHT22;9708;53.114;9.388;2023-05-07T00:07:55;9.90;99.90
19152;DHT22;9708;53.114;9.388;2023-05-07T00:10:22;9.80;99.90
19152;DHT22;9708;53.114;9.388;2023-05-07T00:12:49;9.70;99.90
19152;DHT22;9708;53.114;9.388;2023-05-07T00:15:16;9.80;99.90
19152;DHT22;9708;53.114;9.388;2023-05-07T00:17:43;9.70;99.90
19152;DHT22;9708;53.114;9.388;2023-05-07T00:20:10;9.60;99.90
19152;DHT22;9708;53.114;9.388;2023-05-07T00:22:38;9.60;99.90
19152;DHT22;9708;53.114;9.388;2023-05-07T00:25:06;9.60;99.90
19152;DHT22;9708;53.114;9.388;2023-05-07T00:27:33;9.60;99.90
19152;DHT22;9708;53.114;9.388;2023-05-07T00:29:59;9.70;99.90
19152;DHT22;9708;53.114;9.388;2023-05-07T00:32:26;9.70;99.90
19152;DHT22;9708;53.114;9.388;2023-05-07T00:34:53;9.70;99.90
19152;DHT22;9708;53.114;9.388;2023-05-07T00:37:19;9.80;99.90
19152;DHT22;9708;53.114;9.388;2023-05-07T00:39:48;9.80;99.90
19152;DHT22;9708;53.114;9.388;2023-05-07T00:42:14;9.70;99.90
19152;DHT22;9708;53.114;9.388;2023-05-07T00:44:41;9.60;99.90
19152;DHT22;9708;53.114;9.388;2023-05-07T00:47:08;9.70;99.90
19152;DHT22;9708;53.114;9.388;2023-05-07T00:49:38;9.70;99.90
19152;DHT22;9708;53.114;9.388;2023-05-07T00:52:06;9.70;99.90
19152;DHT22;9708;53.114;9.388;2023-05-07T00:54:34;9.70;99.90
19152;DHT22;9708;53.114;9.388;2023-05-07T00:57:03;9.70;99.90
19152;DHT22;9708;53.114;9.388;2023-05-07T00:59:31;9.60;99.90
19152;DHT22;9708;53.114;9.388;2023-05-07T01:01:58;9.70;99.90
19152;DHT22;9708;53.114;9.388;2023-05-07T01:04:26;9.70;99.90
19152;DHT22;9708;53.114;9.388;2023-05-07T01:06:54;9.60;99.90
19152;DHT22;9708;53.114;9.388;2023-05-07T01:09:22;9.70;99.90
19152;DHT22;9708;53.114;9.388;2023-05-07T01:11:49;9.70;99.90
19152;DHT22;9708;53.114;9.388;2023-05-07T01:14:19;9.60;99.90
19152;DHT22;9708;53.114;9.388;2023-05-07T01:16:46;9.60;99.90
19152;DHT22;9708;53.114;9.388;2023-05-07T01:19:14;9.60;99.90
19152;DHT22;9708;53.114;9.388;2023-05-07T01:21:46;9.70;99.90
19152;DHT22;9708;53.114;9.388;2023-05-07T01:24:15;9.80;99.90
19152;DHT22;9708;53.114;9.388;2023-05-07T01:26:43;9.80;99.90
19152;DHT22;9708;53.114;9.388;2023-05-07T01:29:10;9.80;99.90
19152;DHT22;9708;53.114;9.388;2023-05-07T01:31:37;9.60;99.90
19152;DHT22;9708;53.114;9.388;2023-05-07T01:34:05;9.60;99.90
19152;DHT22;9708;53.114;9.388;2023-05-07T01:36:34;9.50;99.90
19152;DHT22;9708;53.114;9.388;2023-05-07T01:39:02;9.40;99.90
19152;DHT22;9708;53.114;9.388;2023-05-07T01:41:30;9.50;99.90
19152;DHT22;9708;53.114;9.388;2023-05-07T01:43:58;9.60;99.90
19152;DHT22;9708;53.114;9.388;2023-05-07T01:46:26;9.60;99.90
19152;DHT22;9708;53.114;9.388;2023-05-07T01:48:53;9.70;99.90
19152;DHT22;9708;53.114;9.388;2023-05-07T01:51:20;9.70;99.90
19152;DHT22;9708;53.114;9.388;2023-05-07T01:53:48;9.70;99.90
19152;DHT22;9708;53.114;9.388;2023-05-07T01:56:16;9.80;99.90
19152;DHT22;9708;53.114;9.388;2023-05-07T01:58:44;9.80;99.90
19152;DHT22;9708;53.114;9.388;2023-05-07T02:01:12;9.60;99.90
19152;DHT22;9708;53.114;9.388;2023-05-07T02:03:39;9.60;99.90
19152;DHT22;9708;53.114;9.388;2023-05-07T02:06:06;9.60;99.90
19152;DHT22;9708;53.114;9.388;2023-05-07T02:08:33;9.50;99.90
19152;DHT22;9708;53.114;9.388;2023-05-07T02:11:00;9.50;99.90
19152;DHT22;9708;53.114;9.388;2023-05-07T02:13:31;9.60;99.90
19152;DHT22;9708;53.114;9.388;2023-05-07T02:15:59;9.70;99.90
19152;DHT22;9708;53.114;9.388;2023-05-07T02:18:26;9.80;99.90
19152;DHT22;9708;53.114;9.388;2023-05-07T02:20:53;9.70;99.90
19152;DHT22;9708;53.114;9.388;2023-05-07T02:23:19;9.60;99.90
19152;DHT22;9708;53.114;9.388;2023-05-07T02:25:46;9.60;99.90
19152;DHT22;9708;53.114;9.388;2023-05-07T02:28:13;9.70;99.90
19152;DHT22;9708;53.114;9.388;2023-05-07T02:30:40;9.70;99.90
19152;DHT22;9708;53.114;9.388;2023-05-07T02:33:08;9.50;99.90
19152;DHT22;9708;53.114;9.388;2023-05-07T02:35:37;9.60;99.90
19152;DHT22;9708;53.114;9.388;2023-05-07T02:38:04;9.60;99.90
19152;DHT22;9708;53.114;9.388;2023-05-07T02:40:31;9.50;99.90
19152;DHT22;9708;53.114;9.388;2023-05-07T02:42:59;9.50;99.90
19152;DHT22;9708;53.114;9.388;2023-05-07T02:45:26;9.50;99.90
19152;DHT22;9708;53.114;9.388;2023-05-07T02:47:52;9.50;99.90
19152;DHT22;9708;53.114;9.388;2023-05-07T02:50:20;9.50;99.90
19152;DHT22;9708;53.114;9.388;2023-05-07T02:52:47;9.50;99.90
19152;DHT22;9708;53.114;9.388;2023-05-07T02:55:14;9.50;99.90
19152;DHT22;9708;53.114;9.388;2023-05-07T02:57:41;9.60;99.90
19152;DHT22;9708;53.114;9.388;2023-05-07T03:00:13;9.50;99.90
19152;DHT22;9708;53.114;9.388;2023-05-07T03:02:40;9.40;99.90
19152;DHT22;9708;53.114;9.388;2023-05-07T03:05:06;9.50;99.90
19152;DHT22;9708;53.114;9.388;2023-05-07T03:07:35;9.50;99.90
19152;DHT22;9708;53.114;9.388;2023-05-07T03:10:02;9.50;99.90
19152;DHT22;9708;53.114;9.388;2023-05-07T03:12:30;9.40;99.90
19152;DHT22;9708;53.114;9.388;2023-05-07T03:14:56;9.40;99.90
19152;DHT22;9708;53.114;9.388;2023-05-07T03:17:23;9.40;99.90
19152;DHT22;9708;53.114;9.388;2023-05-07T03:19:50;9.50;99.90
19152;DHT22;9708;53.114;9.388;2023-05-07T03:22:17;9.40;99.90
19152;DHT22;9708;53.114;9.388;2023-05-07T03:24:45;9.50;99.90
19152;DHT22;9708;53.114;9.388;2023-05-07T03:27:12;9.50;99.90
19152;DHT22;9708;53.114;9.388;2023-05-07T03:29:38;9.50;99.90
19152;DHT22;9708;53.114;9.388;2023-05-07T03:32:05;9.60;99.90
19152;DHT22;9708;53.114;9.388;2023-05-07T03:34:32;9.60;99.90
19152;DHT22;9708;53.114;9.388;2023-05-07T03:36:59;9.60;99.90
19152;DHT22;9708;53.114;9.388;2023-05-07T03:39:25;9.60;99.90
19152;DHT22;9708;53.114;9.388;2023-05-07T03:41:54;9.60;99.90
19152;DHT22;9708;53.114;9.388;2023-05-07T03:44:20;9.60;99.90
19152;DHT22;9708;53.114;9.388;2023-05-07T03:46:47;9.60;99.90
19152;DHT22;9708;53.114;9.388;2023-05-07T03:49:14;9.70;99.90
19152;DHT22;9708;53.114;9.388;2023-05-07T03:51:41;9.70;99.90
19152;DHT22;9708;53.114;9.388;2023-05-07T03:54:07;9.60;99.90
19152;DHT22;9708;53.114;9.388;2023-05-07T03:56:34;9.60;99.90
19152;DHT22;9708;53.114;9.388;2023-05-07T03:59:02;9.60;99.90
19152;DHT22;9708;53.114;9.388;2023-05-07T04:01:29;9.70;99.90
19152;DHT22;9708;53.114;9.388;2023-05-07T04:03:56;9.60;99.90
19152;DHT22;9708;53.114;9.388;2023-05-07T04:06:22;9.60;99.90
19152;DHT22;9708;53.114;9.388;2023-05-07T04:08:49;9.60;99.90
19152;DHT22;9708;53.114;9.388;2023-05-07T04:11:16;9.60;99.90
19152;DHT22;9708;53.114;9.388;2023-05-07T04:13:43;9.60;99.90
19152;DHT22;9708;53.114;9.388;2023-05-07T04:16:11;9.60;99.90
19152;DHT22;9708;53.114;9.388;2023-05-07T04:18:37;9.60;99.90
19152;DHT22;9708;53.114;9.388;2023-05-07T04:21:04;9.70;99.90
19152;DHT22;9708;53.114;9.388;2023-05-07T04:23:31;9.70;99.90
19152;DHT22;9708;53.114;9.388;2023-05-07T04:25:58;9.60;99.90
19152;DHT22;9708;53.114;9.388;2023-05-07T04:28:26;9.60;99.90
19152;DHT22;9708;53.114;9.388;2023-05-07T04:30:53;9.60;99.90
19152;DHT22;9708;53.114;9.388;2023-05-07T04:33:21;9.60;99.90
19152;DHT22;9708;53.114;9.388;2023-05-07T04:35:47;9.60;99.90
19152;DHT22;9708;53.114;9.388;2023-05-07T04:38:14;9.60;99.90
19152;DHT22;9708;53.114;9.388;2023-05-07T04:40:41;9.70;99.90
19152;DHT22;9708;53.114;9.388;2023-05-07T04:43:08;9.60;99.90
19152;DHT22;9708;53.114;9.388;2023-05-07T04:45:35;9.70;99.90
19152;DHT22;9708;53.114;9.388;2023-05-07T04:48:02;9.70;99.90
19152;DHT22;9708;53.114;9.388;2023-05-07T04:50:30;9.60;99.90
19152;DHT22;9708;53.114;9.388;2023-05-07T04:52:57;9.60;99.90
19152;DHT22;9708;53.114;9.388;2023-05-07T04:55:24;9.70;99.90
19152;DHT22;9708;53.114;9.388;2023-05-07T04:57:52;9.90;99.90
19152;DHT22;9708;53.114;9.388;2023-05-07T05:00:19;9.80;99.90
19152;DHT22;9708;53.114;9.388;2023-05-07T05:02:46;9.90;99.90
19152;DHT22;9708;53.114;9.388;2023-05-07T05:05:12;9.80;99.90
19152;DHT22;9708;53.114;9.388;2023-05-07T05:07:40;9.80;99.90
19152;DHT22;9708;53.114;9.388;2023-05-07T05:10:07;9.70;99.90
19152;DHT22;9708;53.114;9.388;2023-05-07T05:12:34;9.70;99.90
19152;DHT22;9708;53.114;9.388;2023-05-07T05:15:01;9.80;99.90
19152;DHT22;9708;53.114;9.388;2023-05-07T05:17:28;9.90;99.90
19152;DHT22;9708;53.114;9.388;2023-05-07T05:19:54;9.90;99.90
19152;DHT22;9708;53.114;9.388;2023-05-07T05:22:21;10.00;99.90
19152;DHT22;9708;53.114;9.388;2023-05-07T05:24:49;9.80;99.90
19152;DHT22;9708;53.114;9.388;2023-05-07T05:27:16;9.80;99.90
19152;DHT22;9708;53.114;9.388;2023-05-07T05:29:43;9.80;99.90
19152;DHT22;9708;53.114;9.388;2023-05-07T05:32:09;9.90;99.90
19152;DHT22;9708;53.114;9.388;2023-05-07T05:34:36;9.90;99.90
19152;DHT22;9708;53.114;9.388;2023-05-07T05:37:03;9.90;99.90
19152;DHT22;9708;53.114;9.388;2023-05-07T05:39:30;9.80;99.90
19152;DHT22;9708;53.114;9.388;2023-05-07T05:41:58;9.90;99.90
19152;DHT22;9708;53.114;9.388;2023-05-07T05:44:25;9.80;99.90
19152;DHT22;9708;53.114;9.388;2023-05-07T05:46:51;9.80;99.90
19152;DHT22;9708;53.114;9.388;2023-05-07T05:49:20;9.80;99.90
19152;DHT22;9708;53.114;9.388;2023-05-07T05:51:47;9.90;99.90
19152;DHT22;9708;53.114;9.388;2023-05-07T05:54:13;10.10;99.90
19152;DHT22;9708;53.114;9.388;2023-05-07T05:56:41;10.10;99.90
19152;DHT22;9708;53.114;9.388;2023-05-07T05:59:09;10.10;99.90
19152;DHT22;9708;53.114;9.388;2023-05-07T06:01:36;10.20;99.90
19152;DHT22;9708;53.114;9.388;2023-05-07T06:04:03;10.30;99.90
19152;DHT22;9708;53.114;9.388;2023-05-07T06:06:30;10.30;99.90
19152;DHT22;9708;53.114;9.388;2023-05-07T06:08:57;10.40;99.90
19152;DHT22;9708;53.114;9.388;2023-05-07T06:11:24;10.50;99.90
19152;DHT22;9708;53.114;9.388;2023-05-07T06:13:51;10.30;99.90
19152;DHT22;9708;53.114;9.388;2023-05-07T06:16:19;10.30;99.90
19152;DHT22;9708;53.114;9.388;2023-05-07T06:18:46;10.40;99.90
19152;DHT22;9708;53.114;9.388;2023-05-07T06:21:13;10.50;99.90
19152;DHT22;9708;53.114;9.388;2023-05-07T06:23:40;10.40;99.90
19152;DHT22;9708;53.114;9.388;2023-05-07T06:26:07;10.30;99.90
19152;DHT22;9708;53.114;9.388;2023-05-07T06:28:34;10.40;99.90
19152;DHT22;9708;53.114;9.388;2023-05-07T06:31:11;10.20;99.90
19152;DHT22;9708;53.114;9.388;2023-05-07T06:33:39;10.20;99.90
19152;DHT22;9708;53.114;9.388;2023-05-07T06:36:06;10.30;99.90
19152;DHT22;9708;53.114;9.388;2023-05-07T06:38:33;10.30;99.90
19152;DHT22;9708;53.114;9.388;2023-05-07T06:41:00;10.30;99.90
19152;DHT22;9708;53.114;9.388;2023-05-07T06:43:27;10.40;99.90
19152;DHT22;9708;53.114;9.388;2023-05-07T06:45:53;10.40;99.90
19152;DHT22;9708;53.114;9.388;2023-05-07T06:48:20;10.50;99.90
19152;DHT22;9708;53.114;9.388;2023-05-07T06:50:48;10.50;99.90
19152;DHT22;9708;53.114;9.388;2023-05-07T06:53:15;10.60;99.90
19152;DHT22;9708;53.114;9.388;2023-05-07T06:55:42;10.50;99.90
19152;DHT22;9708;53.114;9.388;2023-05-07T06:58:08;10.50;99.90
19152;DHT22;9708;53.114;9.388;2023-05-07T07:00:35;10.70;99.90
19152;DHT22;9708;53.114;9.388;2023-05-07T07:03:02;10.70;99.90
19152;DHT22;9708;53.114;9.388;2023-05-07T07:05:29;10.80;99.90
19152;DHT22;9708;53.114;9.388;2023-05-07T07:07:57;10.90;99.90
19152;DHT22;9708;53.114;9.388;2023-05-07T07:10:24;10.80;99.90
19152;DHT22;9708;53.114;9.388;2023-05-07T07:12:50;10.80;99.90
19152;DHT22;9708;53.114;9.388;2023-05-07T07:15:19;10.90;99.90
19152;DHT22;9708;53.114;9.388;2023-05-07T07:17:46;11.10;99.90
19152;DHT22;9708;53.114;9.388;2023-05-07T07:20:13;10.80;99.90
19152;DHT22;9708;53.114;9.388;2023-05-07T07:22:39;10.90;99.90
19152;DHT22;9708;53.114;9.388;2023-05-07T07:25:08;10.90;99.90
19152;DHT22;9708;53.114;9.388;2023-05-07T07:27:36;11.10;99.90
19152;DHT22;9708;53.114;9.388;2023-05-07T07:30:04;11.00;99.90
19152;DHT22;9708;53.114;9.388;2023-05-07T07:32:31;11.10;99.90
19152;DHT22;9708;53.114;9.388;2023-05-07T07:34:58;11.10;99.90
19152;DHT22;9708;53.114;9.388;2023-05-07T07:37:25;11.10;99.90
19152;DHT22;9708;53.114;9.388;2023-05-07T07:39:52;11.20;99.90
19152;DHT22;9708;53.114;9.388;2023-05-07T07:42:20;11.50;99.90
19152;DHT22;9708;53.114;9.388;2023-05-07T07:44:47;11.50;99.90
19152;DHT22;9708;53.114;9.388;2023-05-07T07:47:14;11.30;99.90
19152;DHT22;9708;53.114;9.388;2023-05-07T07:49:41;11.50;99.90
19152;DHT22;9708;53.114;9.388;2023-05-07T07:52:08;11.50;99.90
19152;DHT22;9708;53.114;9.388;2023-05-07T07:54:35;11.50;99.90
19152;DHT22;9708;53.114;9.388;2023-05-07T07:57:01;11.60;99.90
19152;DHT22;9708;53.114;9.388;2023-05-07T07:59:30;11.30;99.90
19152;DHT22;9708;53.114;9.388;2023-05-07T08:01:57;11.40;99.90
19152;DHT22;9708;53.114;9.388;2023-05-07T08:04:24;11.70;99.90
19152;DHT22;9708;53.114;9.388;2023-05-07T08:06:50;11.60;99.90
19152;DHT22;9708;53.114;9.388;2023-05-07T08:09:17;11.50;99.90
19152;DHT22;9708;53.114;9.388;2023-05-07T08:11:44;11.60;99.90
19152;DHT22;9708;53.114;9.388;2023-05-07T08:14:11;11.50;99.90
19152;DHT22;9708;53.114;9.388;2023-05-07T08:16:39;11.20;99.90
19152;DHT22;9708;53.114;9.388;2023-05-07T08:19:06;11.50;99.90
19152;DHT22;9708;53.114;9.388;2023-05-07T08:21:33;11.70;99.90
19152;DHT22;9708;53.114;9.388;2023-05-07T08:24:00;11.80;99.90
19152;DHT22;9708;53.114;9.388;2023-05-07T08:26:27;11.80;99.90
19152;DHT22;9708;53.114;9.388;2023-05-07T08:28:54;11.70;99.90
19152;DHT22;9708;53.114;9.388;2023-05-07T08:31:20;11.60;99.90
19152;DHT22;9708;53.114;9.388;2023-05-07T08:33:50;11.50;99.90
19152;DHT22;9708;53.114;9.388;2023-05-07T08:36:16;11.70;99.90
19152;DHT22;9708;53.114;9.388;2023-05-07T08:38:44;12.00;99.90
19152;DHT22;9708;53.114;9.388;2023-05-07T08:41:11;12.10;99.90
19152;DHT22;9708;53.114;9.388;2023-05-07T08:43:38;12.20;99.90
19152;DHT22;9708;53.114;9.388;2023-05-07T08:46:09;12.10;99.90
19152;DHT22;9708;53.114;9.388;2023-05-07T08:48:37;12.30;99.90
19152;DHT22;9708;53.114;9.388;2023-05-07T08:51:05;12.10;99.90
19152;DHT22;9708;53.114;9.388;2023-05-07T08:53:33;12.50;99.90
19152;DHT22;9708;53.114;9.388;2023-05-07T08:56:00;12.50;99.90
19152;DHT22;9708;53.114;9.388;2023-05-07T08:58:27;12.10;99.90
19152;DHT22;9708;53.114;9.388;2023-05-07T09:00:54;12.10;99.90
19152;DHT22;9708;53.114;9.388;2023-05-07T09:03:21;12.20;99.90
19152;DHT22;9708;53.114;9.388;2023-05-07T09:05:47;12.20;99.90
19152;DHT22;9708;53.114;9.388;2023-05-07T09:08:15;12.40;99.90
19152;DHT22;9708;53.114;9.388;2023-05-07T09:10:42;12.40;99.90
19152;DHT22;9708;53.114;9.388;2023-05-07T09:13:09;12.20;99.90
19152;DHT22;9708;53.114;9.388;2023-05-07T09:15:38;12.60;99.90
19152;DHT22;9708;53.114;9.388;2023-05-07T09:18:05;12.70;99.90
19152;DHT22;9708;53.114;9.388;2023-05-07T09:20:32;12.80;99.90
19152;DHT22;9708;53.114;9.388;2023-05-07T09:22:58;12.70;99.90
19152;DHT22;9708;53.114;9.388;2023-05-07T09:25:30;13.00;99.90
19152;DHT22;9708;53.114;9.388;2023-05-07T09:27:57;12.80;99.90
19152;DHT22;9708;53.114;9.388;2023-05-07T09:30:27;12.90;99.90
19152;DHT22;9708;53.114;9.388;2023-05-07T09:32:54;12.70;99.90
19152;DHT22;9708;53.114;9.388;2023-05-07T09:35:21;12.80;99.90
19152;DHT22;9708;53.114;9.388;2023-05-07T09:37:50;13.10;99.90
19152;DHT22;9708;53.114;9.388;2023-05-07T09:40:23;13.30;99.90
19152;DHT22;9708;53.114;9.388;2023-05-07T09:42:51;13.10;99.90
19152;DHT22;9708;53.114;9.388;2023-05-07T09:45:22;13.00;99.90
19152;DHT22;9708;53.114;9.388;2023-05-07T09:47:49;13.30;99.90
19152;DHT22;9708;53.114;9.388;2023-05-07T09:50:18;13.40;99.90
19152;DHT22;9708;53.114;9.388;2023-05-07T09:52:45;13.10;99.90
19152;DHT22;9708;53.114;9.388;2023-05-07T09:55:13;13.50;99.90
19152;DHT22;9708;53.114;9.388;2023-05-07T09:57:40;13.50;99.90
19152;DHT22;9708;53.114;9.388;2023-05-07T10:00:11;13.30;99.90
19152;DHT22;9708;53.114;9.388;2023-05-07T10:02:39;13.40;99.90
19152;DHT22;9708;53.114;9.388;2023-05-07T10:05:12;13.60;99.90
19152;DHT22;9708;53.114;9.388;2023-05-07T10:07:40;13.60;99.90
19152;DHT22;9708;53.114;9.388;2023-05-07T10:10:08;13.30;99.90
19152;DHT22;9708;53.114;9.388;2023-05-07T10:12:35;13.20;99.90
19152;DHT22;9708;53.114;9.388;2023-05-07T10:15:06;13.70;99.90
19152;DHT22;9708;53.114;9.388;2023-05-07T10:17:36;13.90;99.90
19152;DHT22;9708;53.114;9.388;2023-05-07T10:20:04;14.10;99.90
19152;DHT22;9708;53.114;9.388;2023-05-07T10:22:37;13.90;99.90
19152;DHT22;9708;53.114;9.388;2023-05-07T10:25:07;14.30;99.90
19152;DHT22;9708;53.114;9.388;2023-05-07T10:27:36;14.10;99.90
19152;DHT22;9708;53.114;9.388;2023-05-07T10:30:10;14.30;99.90
19152;DHT22;9708;53.114;9.388;2023-05-07T10:32:45;14.10;99.90
19152;DHT22;9708;53.114;9.388;2023-05-07T10:35:17;13.90;99.90
19152;DHT22;9708;53.114;9.388;2023-05-07T10:37:44;14.60;99.90
19152;DHT22;9708;53.114;9.388;2023-05-07T10:40:12;14.50;99.90
19152;DHT22;9708;53.114;9.388;2023-05-07T10:42:53;14.00;99.90
19152;DHT22;9708;53.114;9.388;2023-05-07T10:45:21;14.00;99.90
19152;DHT22;9708;53.114;9.388;2023-05-07T10:48:09;14.00;99.90
19152;DHT22;9708;53.114;9.388;2023-05-07T10:50:36;14.20;99.90
19152;DHT22;9708;53.114;9.388;2023-05-07T10:53:23;13.90;99.90
19152;DHT22;9708;53.114;9.388;2023-05-07T10:59:30;13.90;99.90
19152;DHT22;9708;53.114;9.388;2023-05-07T11:01:58;14.00;99.90
19152;DHT22;9708;53.114;9.388;2023-05-07T11:04:29;14.20;99.90
19152;DHT22;9708;53.114;9.388;2023-05-07T11:07:31;14.00;99.90
19152;DHT22;9708;53.114;9.388;2023-05-07T11:10:02;14.20;99.90
19152;DHT22;9708;53.114;9.388;2023-05-07T11:12:52;14.10;99.90
19152;DHT22;9708;53.114;9.388;2023-05-07T11:15:39;14.20;99.90
19152;DHT22;9708;53.114;9.388;2023-05-07T11:18:07;14.80;99.90
19152;DHT22;9708;53.114;9.388;2023-05-07T11:20:53;15.10;99.90
19152;DHT22;9708;53.114;9.388;2023-05-07T11:26:20;14.80;99.90
19152;DHT22;9708;53.114;9.388;2023-05-07T11:28:47;14.90;99.90
19152;DHT22;9708;53.114;9.388;2023-05-07T11:31:21;15.30;99.90
19152;DHT22;9708;53.114;9.388;2023-05-07T11:33:48;16.10;99.90
19152;DHT22;9708;53.114;9.388;2023-05-07T11:36:16;16.50;99.90
19152;DHT22;9708;53.114;9.388;2023-05-07T11:38:44;16.80;99.90
19152;DHT22;9708;53.114;9.388;2023-05-07T11:41:11;16.30;99.90
19152;DHT22;9708;53.114;9.388;2023-05-07T11:43:40;16.50;99.90
19152;DHT22;9708;53.114;9.388;2023-05-07T11:46:20;17.20;99.90
19152;DHT22;9708;53.114;9.388;2023-05-07T11:48:47;17.40;99.90
19152;DHT22;9708;53.114;9.388;2023-05-07T11:51:20;17.90;99.90
19152;DHT22;9708;53.114;9.388;2023-05-07T11:53:47;17.90;99.90
19152;DHT22;9708;53.114;9.388;2023-05-07T11:56:15;17.50;99.90
19152;DHT22;9708;53.114;9.388;2023-05-07T11:58:43;17.20;99.90
19152;DHT22;9708;53.114;9.388;2023-05-07T12:01:11;17.20;99.90
19152;DHT22;9708;53.114;9.388;2023-05-07T12:03:40;17.00;99.90
19152;DHT22;9708;53.114;9.388;2023-05-07T12:06:09;17.20;99.90
19152;DHT22;9708;53.114;9.388;2023-05-07T12:08:39;17.00;99.90
19152;DHT22;9708;53.114;9.388;2023-05-07T12:11:13;17.10;99.90
19152;DHT22;9708;53.114;9.388;2023-05-07T12:13:41;17.30;99.90
19152;DHT22;9708;53.114;9.388;2023-05-07T12:16:08;17.10;99.90
19152;DHT22;9708;53.114;9.388;2023-05-07T12:18:36;16.50;99.90
19152;DHT22;9708;53.114;9.388;2023-05-07T12:21:04;17.00;99.90
19152;DHT22;9708;53.114;9.388;2023-05-07T12:23:31;17.40;99.90
19152;DHT22;9708;53.114;9.388;2023-05-07T12:26:00;17.10;99.90
19152;DHT22;9708;53.114;9.388;2023-05-07T12:28:27;16.70;99.90
19152;DHT22;9708;53.114;9.388;2023-05-07T12:30:54;16.80;99.90
19152;DHT22;9708;53.114;9.388;2023-05-07T12:33:24;16.90;99.90
19152;DHT22;9708;53.114;9.388;2023-05-07T12:35:53;17.20;99.90
19152;DHT22;9708;53.114;9.388;2023-05-07T12:38:21;16.70;99.90
19152;DHT22;9708;53.114;9.388;2023-05-07T12:40:48;16.80;99.90
19152;DHT22;9708;53.114;9.388;2023-05-07T12:43:18;17.00;99.90
19152;DHT22;9708;53.114;9.388;2023-05-07T12:45:47;17.80;99.90
19152;DHT22;9708;53.114;9.388;2023-05-07T12:48:14;18.20;99.90
19152;DHT22;9708;53.114;9.388;2023-05-07T12:50:41;17.80;99.90
19152;DHT22;9708;53.114;9.388;2023-05-07T12:53:10;18.20;99.90
19152;DHT22;9708;53.114;9.388;2023-05-07T12:55:41;18.60;99.90
19152;DHT22;9708;53.114;9.388;2023-05-07T12:58:14;18.20;99.90
19152;DHT22;9708;53.114;9.388;2023-05-07T13:00:44;18.50;99.90
19152;DHT22;9708;53.114;9.388;2023-05-07T13:03:11;17.90;99.90
19152;DHT22;9708;53.114;9.388;2023-05-07T13:05:39;17.70;99.90
19152;DHT22;9708;53.114;9.388;2023-05-07T13:08:06;17.00;99.90
19152;DHT22;9708;53.114;9.388;2023-05-07T13:10:35;17.00;99.90
19152;DHT22;9708;53.114;9.388;2023-05-07T13:13:01;16.80;99.90
19152;DHT22;9708;53.114;9.388;2023-05-07T13:15:29;16.30;99.90
19152;DHT22;9708;53.114;9.388;2023-05-07T13:17:57;16.00;99.90
19152;DHT22;9708;53.114;9.388;2023-05-07T13:20:24;16.20;99.90
19152;DHT22;9708;53.114;9.388;2023-05-07T13:22:51;16.40;99.90
19152;DHT22;9708;53.114;9.388;2023-05-07T13:25:18;16.80;99.90
19152;DHT22;9708;53.114;9.388;2023-05-07T13:27:44;17.00;99.90
19152;DHT22;9708;53.114;9.388;2023-05-07T13:30:11;17.30;99.90
19152;DHT22;9708;53.114;9.388;2023-05-07T13:32:38;17.20;99.90
19152;DHT22;9708;53.114;9.388;2023-05-07T13:35:07;17.10;99.90
19152;DHT22;9708;53.114;9.388;2023-05-07T13:37:34;16.70;99.90
19152;DHT22;9708;53.114;9.388;2023-05-07T13:40:02;16.80;99.90
19152;DHT22;9708;53.114;9.388;2023-05-07T13:42:28;16.70;99.90
19152;DHT22;9708;53.114;9.388;2023-05-07T13:44:56;16.30;99.90
19152;DHT22;9708;53.114;9.388;2023-05-07T13:47:23;16.40;99.90
19152;DHT22;9708;53.114;9.388;2023-05-07T13:49:50;16.50;99.90
19152;DHT22;9708;53.114;9.388;2023-05-07T13:52:18;17.20;99.90
19152;DHT22;9708;53.114;9.388;2023-05-07T13:54:45;17.00;99.90
19152;DHT22;9708;53.114;9.388;2023-05-07T13:57:12;17.10;99.90
19152;DHT22;9708;53.114;9.388;2023-05-07T13:59:39;16.90;99.90
19152;DHT22;9708;53.114;9.388;2023-05-07T14:02:06;17.20;99.90
19152;DHT22;9708;53.114;9.388;2023-05-07T14:04:33;17.20;99.90
19152;DHT22;9708;53.114;9.388;2023-05-07T14:07:00;17.00;99.90
19152;DHT22;9708;53.114;9.388;2023-05-07T14:09:28;17.00;99.90
19152;DHT22;9708;53.114;9.388;2023-05-07T14:11:54;16.80;99.90
19152;DHT22;9708;53.114;9.388;2023-05-07T14:14:21;17.00;99.90
19152;DHT22;9708;53.114;9.388;2023-05-07T14:16:48;16.70;99.90
19152;DHT22;9708;53.114;9.388;2023-05-07T14:19:15;16.80;99.90
19152;DHT22;9708;53.114;9.388;2023-05-07T14:21:41;16.40;99.90
19152;DHT22;9708;53.114;9.388;2023-05-07T14:24:08;16.50;99.90
19152;DHT22;9708;53.114;9.388;2023-05-07T14:26:37;16.60;99.90
19152;DHT22;9708;53.114;9.388;2023-05-07T14:29:03;16.40;99.90
19152;DHT22;9708;53.114;9.388;2023-05-07T14:31:30;16.60;99.90
19152;DHT22;9708;53.114;9.388;2023-05-07T14:33:58;16.50;99.90
19152;DHT22;9708;53.114;9.388;2023-05-07T14:36:25;16.20;99.90
19152;DHT22;9708;53.114;9.388;2023-05-07T14:38:52;16.20;99.90
19152;DHT22;9708;53.114;9.388;2023-05-07T14:41:19;16.50;99.90
19152;DHT22;9708;53.114;9.388;2023-05-07T14:43:48;16.40;99.90
19152;DHT22;9708;53.114;9.388;2023-05-07T14:46:16;16.40;99.90
19152;DHT22;9708;53.114;9.388;2023-05-07T14:48:43;16.60;99.90
19152;DHT22;9708;53.114;9.388;2023-05-07T14:51:11;16.60;99.90
19152;DHT22;9708;53.114;9.388;2023-05-07T14:53:37;16.70;99.90
19152;DHT22;9708;53.114;9.388;2023-05-07T14:56:04;16.50;99.90
19152;DHT22;9708;53.114;9.388;2023-05-07T14:58:33;16.60;99.90
19152;DHT22;9708;53.114;9.388;2023-05-07T15:01:01;16.90;99.90
19152;DHT22;9708;53.114;9.388;2023-05-07T15:03:28;17.20;99.90
19152;DHT22;9708;53.114;9.388;2023-05-07T15:05:55;17.10;99.90
19152;DHT22;9708;53.114;9.388;2023-05-07T15:08:22;17.20;99.90
19152;DHT22;9708;53.114;9.388;2023-05-07T15:10:49;17.10;99.90
19152;DHT22;9708;53.114;9.388;2023-05-07T15:13:16;17.00;99.90
19152;DHT22;9708;53.114;9.388;2023-05-07T15:15:43;17.10;99.90
19152;DHT22;9708;53.114;9.388;2023-05-07T15:18:12;17.10;99.90
19152;DHT22;9708;53.114;9.388;2023-05-07T15:20:39;16.90;99.90
19152;DHT22;9708;53.114;9.388;2023-05-07T15:23:06;16.90;99.90
19152;DHT22;9708;53.114;9.388;2023-05-07T15:25:35;16.70;99.90
19152;DHT22;9708;53.114;9.388;2023-05-07T15:28:02;16.80;99.90
19152;DHT22;9708;53.114;9.388;2023-05-07T15:30:29;16.70;99.90
19152;DHT22;9708;53.114;9.388;2023-05-07T15:32:56;16.70;99.90
19152;DHT22;9708;53.114;9.388;2023-05-07T15:35:24;16.80;99.90
19152;DHT22;9708;53.114;9.388;2023-05-07T15:37:51;16.60;99.90
19152;DHT22;9708;53.114;9.388;2023-05-07T15:40:19;16.60;99.90
19152;DHT22;9708;53.114;9.388;2023-05-07T15:42:46;16.50;99.90
19152;DHT22;9708;53.114;9.388;2023-05-07T15:45:12;16.50;99.90
19152;DHT22;9708;53.114;9.388;2023-05-07T15:47:39;16.40;99.90
19152;DHT22;9708;53.114;9.388;2023-05-07T15:50:07;16.40;99.90
19152;DHT22;9708;53.114;9.388;2023-05-07T15:52:35;16.30;99.90
19152;DHT22;9708;53.114;9.388;2023-05-07T15:55:04;16.40;99.90
19152;DHT22;9708;53.114;9.388;2023-05-07T15:57:31;16.20;99.90
19152;DHT22;9708;53.114;9.388;2023-05-07T15:59:58;16.40;99.90
19152;DHT22;9708;53.114;9.388;2023-05-07T16:02:25;16.40;99.90